createdAt,value
2023-01-29T00:00:00.623Z,-2.26
2023-01-29T00:01:08.578Z,-2.28
2023-01-29T00:02:10.272Z,-2.15
2023-01-29T00:03:11.968Z,-2.06
2023-01-29T00:04:13.712Z,-2.04
2023-01-29T00:05:27.053Z,-2.01
2023-01-29T00:06:29.618Z,-2.04
2023-01-29T00:07:31.164Z,-2.02
2023-01-29T00:08:36.615Z,-2.07
2023-01-29T00:09:38.257Z,-2.10
2023-01-29T00:10:39.778Z,-2.06
2023-01-29T00:11:41.527Z,-2.01
2023-01-29T00:12:43.068Z,-1.95
2023-01-29T00:13:44.569Z,-1.88
2023-01-29T00:14:46.090Z,-1.86
2023-01-29T00:15:55.043Z,-1.90
2023-01-29T00:16:56.668Z,-1.96
2023-01-29T00:17:58.245Z,-2.08
2023-01-29T00:19:01.328Z,-2.25
2023-01-29T00:20:02.895Z,-2.25
2023-01-29T00:21:08.460Z,-2.30
2023-01-29T00:22:09.975Z,-2.28
2023-01-29T00:23:11.493Z,-2.24
2023-01-29T00:24:13.135Z,-2.26
2023-01-29T00:25:14.733Z,-2.27
2023-01-29T00:26:17.238Z,-2.27
2023-01-29T00:27:22.405Z,-2.22
2023-01-29T00:28:23.972Z,-2.20
2023-01-29T00:29:25.508Z,-2.14
2023-01-29T00:30:27.109Z,-2.14
2023-01-29T00:31:29.588Z,-2.09
2023-01-29T00:32:32.266Z,-2.09
2023-01-29T00:33:33.808Z,-2.09
2023-01-29T00:34:35.345Z,-2.11
2023-01-29T00:35:40.023Z,-2.07
2023-01-29T00:36:41.614Z,-2.14
2023-01-29T00:37:43.143Z,-2.12
2023-01-29T00:38:46.432Z,-2.20
2023-01-29T00:39:48.537Z,-2.16
2023-01-29T00:40:50.153Z,-2.08
2023-01-29T00:41:51.687Z,-2.01
2023-01-29T00:42:53.218Z,-1.97
2023-01-29T00:43:54.816Z,-1.99
2023-01-29T00:44:56.469Z,-1.96
2023-01-29T00:45:58.010Z,-1.90
2023-01-29T00:46:59.917Z,-1.93
2023-01-29T00:48:01.482Z,-1.99
2023-01-29T00:49:03.719Z,-1.94
2023-01-29T00:50:10.707Z,-1.90
2023-01-29T00:51:12.613Z,-1.88
2023-01-29T00:52:14.140Z,-1.82
2023-01-29T00:53:15.682Z,-1.86
2023-01-29T00:54:17.336Z,-1.93
2023-01-29T00:55:19.049Z,-2.06
2023-01-29T00:56:20.599Z,-2.01
2023-01-29T00:57:24.039Z,-1.93
2023-01-29T00:58:25.574Z,-1.87
2023-01-29T00:59:27.266Z,-1.81
2023-01-29T01:00:28.790Z,-1.77
2023-01-29T01:01:30.321Z,-1.77
2023-01-29T01:02:31.857Z,-1.81
2023-01-29T01:03:33.393Z,-1.78
2023-01-29T01:04:35.184Z,-1.78
2023-01-29T01:05:36.803Z,-1.78
2023-01-29T01:06:40.357Z,-1.76
2023-01-29T01:07:41.963Z,-1.74
2023-01-29T01:08:43.515Z,-1.72
2023-01-29T01:09:45.063Z,-1.74
2023-01-29T01:10:46.598Z,-1.74
2023-01-29T01:11:48.214Z,-1.71
2023-01-29T01:13:01.099Z,-1.73
2023-01-29T01:14:02.665Z,-1.72
2023-01-29T01:15:04.912Z,-1.68
2023-01-29T01:16:14.313Z,-1.62
2023-01-29T01:17:16.086Z,-1.57
2023-01-29T01:18:17.626Z,-1.54
2023-01-29T01:19:19.158Z,-1.58
2023-01-29T01:20:20.846Z,-1.65
2023-01-29T01:21:22.501Z,-1.65
2023-01-29T01:22:24.044Z,-1.69
2023-01-29T01:23:25.913Z,-1.70
2023-01-29T01:24:27.591Z,-1.67
2023-01-29T01:25:29.443Z,-1.65
2023-01-29T01:26:31.263Z,-1.62
2023-01-29T01:27:32.851Z,-1.64
2023-01-29T01:28:34.393Z,-1.68
2023-01-29T01:29:35.965Z,-1.64
2023-01-29T01:30:37.598Z,-1.60
2023-01-29T01:31:39.237Z,-1.71
2023-01-29T01:32:41.472Z,-1.66
2023-01-29T01:33:42.986Z,-1.62
2023-01-29T01:34:44.551Z,-1.60
2023-01-29T01:35:48.097Z,-1.68
2023-01-29T01:36:49.823Z,-1.73
2023-01-29T01:37:51.360Z,-1.70
2023-01-29T01:38:53.218Z,-1.68
2023-01-29T01:39:54.781Z,-1.66
2023-01-29T01:40:56.356Z,-1.73
2023-01-29T01:41:57.912Z,-1.68
2023-01-29T01:43:00.563Z,-1.60
2023-01-29T01:44:03.984Z,-1.61
2023-01-29T01:45:14.666Z,-1.59
2023-01-29T01:46:16.266Z,-1.72
2023-01-29T01:47:23.353Z,-1.74
2023-01-29T01:48:26.856Z,-1.79
2023-01-29T01:49:28.436Z,-1.78
2023-01-29T01:50:41.273Z,-1.70
2023-01-29T01:51:47.006Z,-1.69
2023-01-29T01:52:55.280Z,-1.67
2023-01-29T01:54:08.104Z,-1.76
2023-01-29T01:55:13.234Z,-1.86
2023-01-29T01:56:21.451Z,-1.88
2023-01-29T01:57:25.510Z,-1.83
2023-01-29T01:58:40.765Z,-1.75
2023-01-29T01:59:56.740Z,-1.73
2023-01-29T02:00:58.363Z,-1.65
2023-01-29T02:02:00.044Z,-1.58
2023-01-29T02:03:02.522Z,-1.64
2023-01-29T02:04:30.226Z,-1.67
2023-01-29T02:05:34.305Z,-1.73
2023-01-29T02:06:39.701Z,-1.73
2023-01-29T02:07:44.140Z,-1.68
2023-01-29T02:09:22.519Z,-1.73
2023-01-29T02:10:24.145Z,-1.80
2023-01-29T02:11:26.544Z,-1.85
2023-01-29T02:12:28.119Z,-1.87
2023-01-29T02:13:29.712Z,-1.79
2023-01-29T02:14:31.658Z,-1.80
2023-01-29T02:15:33.934Z,-1.83
2023-01-29T02:16:37.659Z,-1.81
2023-01-29T02:17:39.925Z,-1.77
2023-01-29T02:18:41.529Z,-1.69
2023-01-29T02:19:48.679Z,-1.65
2023-01-29T02:21:20.083Z,-1.70
2023-01-29T02:22:51.383Z,-1.64
2023-01-29T02:23:52.906Z,-1.67
2023-01-29T02:25:36.056Z,-1.74
2023-01-29T02:26:55.672Z,-1.76
2023-01-29T02:28:32.567Z,-1.74
2023-01-29T02:29:59.218Z,-1.77
2023-01-29T02:31:08.999Z,-1.78
2023-01-29T02:32:29.327Z,-1.86
2023-01-29T02:33:41.745Z,-1.82
2023-01-29T02:35:10.809Z,-1.81
2023-01-29T02:36:40.539Z,-1.83
2023-01-29T02:37:54.318Z,-1.91
2023-01-29T02:39:07.702Z,-1.86
2023-01-29T02:40:27.304Z,-1.77
2023-01-29T02:41:35.597Z,-1.70
2023-01-29T02:42:57.053Z,-1.65
2023-01-29T02:44:19.935Z,-1.59
2023-01-29T02:45:30.266Z,-1.57
2023-01-29T02:46:46.885Z,-1.53
2023-01-29T02:47:56.497Z,-1.54
2023-01-29T02:49:08.285Z,-1.58
2023-01-29T02:50:29.179Z,-1.59
2023-01-29T02:52:09.672Z,-1.62
2023-01-29T02:53:18.789Z,-1.64
2023-01-29T02:54:24.983Z,-1.67
2023-01-29T02:55:33.120Z,-1.70
2023-01-29T02:56:50.965Z,-1.65
2023-01-29T02:57:59.598Z,-1.63
2023-01-29T02:59:18.398Z,-1.70
2023-01-29T03:00:27.826Z,-1.67
2023-01-29T03:01:39.607Z,-1.63
2023-01-29T03:02:41.001Z,-1.79
2023-01-29T03:03:47.614Z,-1.78
2023-01-29T03:04:54.420Z,-1.73
2023-01-29T03:06:02.768Z,-1.72
2023-01-29T03:07:09.893Z,-1.73
2023-01-29T03:08:18.411Z,-1.72
2023-01-29T03:09:28.226Z,-1.75
2023-01-29T03:11:03.952Z,-1.84
2023-01-29T03:12:13.320Z,-1.77
2023-01-29T03:13:20.780Z,-1.72
2023-01-29T03:14:49.818Z,-1.71
2023-01-29T03:16:00.715Z,-1.74
2023-01-29T03:17:11.655Z,-1.70
2023-01-29T03:18:17.603Z,-1.75
2023-01-29T03:19:31.853Z,-1.69
2023-01-29T03:21:08.811Z,-1.71
2023-01-29T03:22:13.113Z,-1.66
2023-01-29T03:23:22.245Z,-1.67
2023-01-29T03:24:58.598Z,-1.70
2023-01-29T03:26:01.723Z,-1.76
2023-01-29T03:27:09.541Z,-1.77
2023-01-29T03:28:18.029Z,-1.70
2023-01-29T03:29:21.927Z,-1.67
2023-01-29T03:30:27.401Z,-1.71
2023-01-29T03:31:38.325Z,-1.73
2023-01-29T03:32:40.789Z,-1.79
2023-01-29T03:33:49.302Z,-1.78
2023-01-29T03:34:57.409Z,-1.76
2023-01-29T03:36:09.004Z,-1.85
2023-01-29T03:37:39.360Z,-1.75
2023-01-29T03:38:41.038Z,-1.79
2023-01-29T03:39:43.812Z,-1.79
2023-01-29T03:40:55.661Z,-1.80
2023-01-29T03:42:15.797Z,-1.77
2023-01-29T03:43:28.553Z,-1.74
2023-01-29T03:44:49.377Z,-1.63
2023-01-29T03:46:02.055Z,-1.64
2023-01-29T03:47:33.003Z,-1.57
2023-01-29T03:48:37.124Z,-1.50
2023-01-29T03:50:02.860Z,-1.59
2023-01-29T03:51:16.961Z,-1.72
2023-01-29T03:52:23.919Z,-1.81
2023-01-29T03:53:40.921Z,-1.86
2023-01-29T03:54:58.615Z,-1.80
2023-01-29T03:56:08.821Z,-1.79
2023-01-29T03:57:25.293Z,-1.75
2023-01-29T03:58:55.789Z,-1.77
2023-01-29T04:00:22.616Z,-1.69
2023-01-29T04:01:53.433Z,-1.65
2023-01-29T04:03:23.072Z,-1.63
2023-01-29T04:04:30.626Z,-1.68
2023-01-29T04:05:40.098Z,-1.82
2023-01-29T04:07:05.513Z,-1.83
2023-01-29T04:08:14.462Z,-1.83
2023-01-29T04:09:23.195Z,-1.79
2023-01-29T04:10:27.465Z,-1.72
2023-01-29T04:11:31.075Z,-1.70
2023-01-29T04:12:40.111Z,-1.66
2023-01-29T04:13:43.144Z,-1.68
2023-01-29T04:14:44.805Z,-1.71
2023-01-29T04:15:53.065Z,-1.71
2023-01-29T04:17:07.843Z,-1.63
2023-01-29T04:18:15.440Z,-1.62
2023-01-29T04:19:49.775Z,-1.57
2023-01-29T04:20:51.953Z,-1.51
2023-01-29T04:22:03.660Z,-1.56
2023-01-29T04:23:06.418Z,-1.68
2023-01-29T04:24:09.032Z,-1.73
2023-01-29T04:25:13.581Z,-1.72
2023-01-29T04:26:48.640Z,-1.65
2023-01-29T04:28:10.962Z,-1.62
2023-01-29T04:29:30.854Z,-1.67
2023-01-29T04:30:39.179Z,-1.82
2023-01-29T04:31:54.981Z,-1.86
2023-01-29T04:33:23.744Z,-1.89
2023-01-29T04:34:28.120Z,-1.90
2023-01-29T04:35:44.219Z,-1.79
2023-01-29T04:36:58.258Z,-1.73
2023-01-29T04:38:05.339Z,-1.72
2023-01-29T04:39:12.833Z,-1.71
2023-01-29T04:40:28.610Z,-1.71
2023-01-29T04:41:36.045Z,-1.70
2023-01-29T04:42:43.495Z,-1.64
2023-01-29T04:44:12.610Z,-1.67
2023-01-29T04:45:27.103Z,-1.70
2023-01-29T04:46:46.953Z,-1.71
2023-01-29T04:48:03.130Z,-1.76
2023-01-29T04:49:24.174Z,-1.84
2023-01-29T04:50:36.011Z,-1.96
2023-01-29T04:51:50.264Z,-1.93
2023-01-29T04:53:07.194Z,-2.00
2023-01-29T04:54:28.186Z,-1.97
2023-01-29T04:55:36.242Z,-1.95
2023-01-29T04:56:50.019Z,-1.94
2023-01-29T04:58:13.286Z,-1.88
2023-01-29T04:59:21.757Z,-1.85
2023-01-29T05:00:33.539Z,-1.86
2023-01-29T05:01:35.753Z,-1.85
2023-01-29T05:02:39.856Z,-1.81
2023-01-29T05:03:45.236Z,-1.81
2023-01-29T05:04:48.258Z,-1.83
2023-01-29T05:05:51.200Z,-1.80
2023-01-29T05:06:53.293Z,-1.77
2023-01-29T05:07:57.104Z,-1.77
2023-01-29T05:09:00.806Z,-1.75
2023-01-29T05:10:05.456Z,-1.75
2023-01-29T05:11:07.560Z,-1.82
2023-01-29T05:12:11.063Z,-1.90
2023-01-29T05:13:14.926Z,-1.88
2023-01-29T05:14:19.664Z,-1.89
2023-01-29T05:15:26.800Z,-1.84
2023-01-29T05:16:33.338Z,-1.85
2023-01-29T05:17:35.188Z,-1.86
2023-01-29T05:18:36.763Z,-1.87
2023-01-29T05:19:38.536Z,-1.88
2023-01-29T05:20:42.941Z,-1.86
2023-01-29T05:21:49.732Z,-1.86
2023-01-29T05:22:51.353Z,-1.85
2023-01-29T05:24:14.353Z,-1.82
2023-01-29T05:25:20.447Z,-1.89
2023-01-29T05:26:22.174Z,-1.88
2023-01-29T05:27:35.240Z,-1.92
2023-01-29T05:28:36.805Z,-1.96
2023-01-29T05:29:46.767Z,-2.05
2023-01-29T05:30:51.022Z,-2.09
2023-01-29T05:31:52.695Z,-2.10
2023-01-29T05:32:54.240Z,-2.17
2023-01-29T05:33:55.761Z,-2.10
2023-01-29T05:34:57.281Z,-2.09
2023-01-29T05:35:59.902Z,-2.14
2023-01-29T05:37:01.472Z,-2.15
2023-01-29T05:38:03.540Z,-2.18
2023-01-29T05:39:05.059Z,-2.19
2023-01-29T05:40:07.241Z,-2.21
2023-01-29T05:41:08.782Z,-2.23
2023-01-29T05:42:10.349Z,-2.27
2023-01-29T05:43:20.584Z,-2.28
2023-01-29T05:44:22.107Z,-2.22
2023-01-29T05:45:23.639Z,-2.17
2023-01-29T05:46:25.215Z,-2.16
2023-01-29T05:47:26.794Z,-2.17
2023-01-29T05:48:29.541Z,-2.16
2023-01-29T05:49:31.108Z,-2.19
2023-01-29T05:50:32.655Z,-2.24
2023-01-29T05:51:34.219Z,-2.23
2023-01-29T05:52:35.726Z,-2.23
2023-01-29T05:53:37.274Z,-2.22
2023-01-29T05:54:38.773Z,-2.26
2023-01-29T05:55:40.325Z,-2.17
2023-01-29T05:56:41.846Z,-2.12
2023-01-29T05:57:43.382Z,-2.17
2023-01-29T05:58:45.083Z,-2.19
2023-01-29T05:59:46.580Z,-2.25
2023-01-29T06:00:48.151Z,-2.29
2023-01-29T06:01:49.742Z,-2.25
2023-01-29T06:02:51.407Z,-2.21
2023-01-29T06:03:52.978Z,-2.21
2023-01-29T06:04:54.491Z,-2.22
2023-01-29T06:05:55.983Z,-2.19
2023-01-29T06:06:57.480Z,-2.17
2023-01-29T06:07:59.066Z,-2.14
2023-01-29T06:09:00.628Z,-2.14
2023-01-29T06:10:03.606Z,-2.18
2023-01-29T06:11:08.220Z,-2.10
2023-01-29T06:12:09.849Z,-2.05
2023-01-29T06:13:11.377Z,-2.04
2023-01-29T06:14:12.918Z,-2.01
2023-01-29T06:15:15.036Z,-2.00
2023-01-29T06:16:16.710Z,-2.04
2023-01-29T06:17:18.279Z,-2.13
2023-01-29T06:18:19.864Z,-2.08
2023-01-29T06:19:21.436Z,-2.10
2023-01-29T06:20:23.422Z,-2.14
2023-01-29T06:21:24.938Z,-2.12
2023-01-29T06:22:26.490Z,-2.19
2023-01-29T06:23:28.387Z,-2.19
2023-01-29T06:24:29.948Z,-2.15
2023-01-29T06:25:31.843Z,-2.15
2023-01-29T06:26:33.384Z,-2.15
2023-01-29T06:27:34.971Z,-2.05
2023-01-29T06:28:36.502Z,-1.99
2023-01-29T06:29:38.018Z,-2.03
2023-01-29T06:30:39.584Z,-2.12
2023-01-29T06:31:41.279Z,-2.09
2023-01-29T06:32:42.950Z,-2.05
2023-01-29T06:33:44.741Z,-2.02
2023-01-29T06:34:48.629Z,-2.09
2023-01-29T06:35:59.304Z,-2.18
2023-01-29T06:37:00.869Z,-2.26
2023-01-29T06:38:02.409Z,-2.31
2023-01-29T06:39:04.587Z,-2.34
2023-01-29T06:40:06.763Z,-2.34
2023-01-29T06:41:12.734Z,-2.37
2023-01-29T06:42:14.451Z,-2.45
2023-01-29T06:43:16.075Z,-2.41
2023-01-29T06:44:17.724Z,-2.36
2023-01-29T06:45:19.403Z,-2.31
2023-01-29T06:46:21.031Z,-2.25
2023-01-29T06:47:23.627Z,-2.19
2023-01-29T06:48:25.268Z,-2.18
2023-01-29T06:49:26.855Z,-2.22
2023-01-29T06:50:28.384Z,-2.21
2023-01-29T06:51:30.100Z,-2.22
2023-01-29T06:52:31.641Z,-2.16
2023-01-29T06:53:34.102Z,-2.07
2023-01-29T06:54:35.631Z,-2.05
2023-01-29T06:55:37.373Z,-2.04
2023-01-29T06:56:38.912Z,-2.10
2023-01-29T06:57:40.414Z,-2.20
2023-01-29T06:58:41.924Z,-2.23
2023-01-29T06:59:43.451Z,-2.22
2023-01-29T07:00:45.114Z,-2.26
2023-01-29T07:01:46.765Z,-2.32
2023-01-29T07:02:51.715Z,-2.32
2023-01-29T07:03:53.372Z,-2.31
2023-01-29T07:04:54.901Z,-2.25
2023-01-29T07:05:56.435Z,-2.17
2023-01-29T07:06:59.779Z,-2.19
2023-01-29T07:08:01.311Z,-2.23
2023-01-29T07:09:04.045Z,-2.19
2023-01-29T07:10:06.143Z,-2.21
2023-01-29T07:11:08.143Z,-2.20
2023-01-29T07:12:10.724Z,-2.18
2023-01-29T07:13:12.248Z,-2.17
2023-01-29T07:14:13.757Z,-2.18
2023-01-29T07:15:15.572Z,-2.16
2023-01-29T07:16:17.243Z,-2.10
2023-01-29T07:17:18.781Z,-2.05
2023-01-29T07:18:20.297Z,-2.04
2023-01-29T07:19:21.863Z,-2.03
2023-01-29T07:20:25.333Z,-1.97
2023-01-29T07:21:26.926Z,-2.00
2023-01-29T07:22:28.428Z,-2.03
2023-01-29T07:23:29.952Z,-2.02
2023-01-29T07:24:31.552Z,-2.09
2023-01-29T07:25:35.874Z,-2.18
2023-01-29T07:26:37.424Z,-2.19
2023-01-29T07:27:38.934Z,-2.21
2023-01-29T07:28:40.974Z,-2.31
2023-01-29T07:29:42.504Z,-2.25
2023-01-29T07:30:44.063Z,-2.24
2023-01-29T07:31:45.730Z,-2.27
2023-01-29T07:32:47.336Z,-2.33
2023-01-29T07:33:48.872Z,-2.38
2023-01-29T07:34:50.425Z,-2.34
2023-01-29T07:35:52.670Z,-2.28
2023-01-29T07:36:54.254Z,-2.38
2023-01-29T07:37:55.793Z,-2.40
2023-01-29T07:38:57.342Z,-2.41
2023-01-29T07:39:58.907Z,-2.39
2023-01-29T07:41:02.272Z,-2.44
2023-01-29T07:42:04.824Z,-2.43
2023-01-29T07:43:07.704Z,-2.46
2023-01-29T07:44:09.212Z,-2.53
2023-01-29T07:45:11.426Z,-2.45
2023-01-29T07:46:13.040Z,-2.48
2023-01-29T07:47:16.997Z,-2.44
2023-01-29T07:48:19.193Z,-2.43
2023-01-29T07:49:20.861Z,-2.45
2023-01-29T07:50:24.326Z,-2.56
2023-01-29T07:51:25.847Z,-2.55
2023-01-29T07:52:29.865Z,-2.51
2023-01-29T07:53:31.435Z,-2.54
2023-01-29T07:54:32.991Z,-2.64
2023-01-29T07:55:34.548Z,-2.65
2023-01-29T07:56:36.135Z,-2.63
2023-01-29T07:57:37.672Z,-2.63
2023-01-29T07:58:39.214Z,-2.65
2023-01-29T07:59:40.726Z,-2.64
2023-01-29T08:00:42.264Z,-2.68
2023-01-29T08:01:43.791Z,-2.71
2023-01-29T08:02:45.351Z,-2.72
2023-01-29T08:03:46.877Z,-2.72
2023-01-29T08:04:48.365Z,-2.69
2023-01-29T08:05:49.916Z,-2.65
2023-01-29T08:06:51.445Z,-2.64
2023-01-29T08:08:05.775Z,-2.61
2023-01-29T08:09:07.914Z,-2.60
2023-01-29T08:10:09.990Z,-2.67
2023-01-29T08:11:11.544Z,-2.69
2023-01-29T08:12:13.108Z,-2.63
2023-01-29T08:13:14.674Z,-2.56
2023-01-29T08:14:16.241Z,-2.51
2023-01-29T08:15:17.775Z,-2.51
2023-01-29T08:16:19.332Z,-2.54
2023-01-29T08:17:20.918Z,-2.54
2023-01-29T08:18:22.479Z,-2.48
2023-01-29T08:19:24.299Z,-2.45
2023-01-29T08:20:25.997Z,-2.38
2023-01-29T08:21:27.538Z,-2.34
2023-01-29T08:22:29.117Z,-2.32
2023-01-29T08:23:30.801Z,-2.31
2023-01-29T08:24:47.453Z,-2.26
2023-01-29T08:25:54.305Z,-2.20
2023-01-29T08:26:56.027Z,-2.24
2023-01-29T08:28:00.038Z,-2.24
2023-01-29T08:29:01.740Z,-2.15
2023-01-29T08:30:04.629Z,-2.03
2023-01-29T08:31:13.921Z,-1.87
2023-01-29T08:32:15.482Z,-1.67
2023-01-29T08:33:19.424Z,-1.57
2023-01-29T08:34:23.198Z,-1.38
2023-01-29T08:35:25.450Z,-1.42
2023-01-29T08:36:26.969Z,-1.29
2023-01-29T08:37:28.495Z,-1.22
2023-01-29T08:38:30.009Z,-1.06
2023-01-29T08:39:33.631Z,-0.88
2023-01-29T08:40:35.480Z,-0.67
2023-01-29T08:41:37.055Z,-0.54
2023-01-29T08:42:38.564Z,-0.47
2023-01-29T08:43:40.102Z,-0.32
2023-01-29T08:44:41.644Z,-0.21
2023-01-29T08:45:44.341Z,0.04
2023-01-29T08:46:45.907Z,0.30
2023-01-29T08:47:49.295Z,0.35
2023-01-29T08:48:50.852Z,0.47
2023-01-29T08:49:52.402Z,0.72
2023-01-29T08:50:57.578Z,0.68
2023-01-29T08:51:59.103Z,0.81
2023-01-29T08:53:02.887Z,0.94
2023-01-29T08:54:04.442Z,1.02
2023-01-29T08:55:06.481Z,1.24
2023-01-29T08:56:08.569Z,1.13
2023-01-29T08:57:10.105Z,1.12
2023-01-29T08:58:12.161Z,1.32
2023-01-29T08:59:13.835Z,1.46
2023-01-29T09:00:16.118Z,1.80
2023-01-29T09:01:17.927Z,2.09
2023-01-29T09:02:19.547Z,2.24
2023-01-29T09:03:21.123Z,2.19
2023-01-29T09:04:22.703Z,2.24
2023-01-29T09:05:24.233Z,2.47
2023-01-29T09:06:25.757Z,2.67
2023-01-29T09:07:29.310Z,3.17
2023-01-29T09:08:30.834Z,3.17
2023-01-29T09:09:32.403Z,3.09
2023-01-29T09:10:34.455Z,3.26
2023-01-29T09:11:36.007Z,3.40
2023-01-29T09:12:37.672Z,3.60
2023-01-29T09:13:39.187Z,3.60
2023-01-29T09:14:40.742Z,3.60
2023-01-29T09:15:42.305Z,3.54
2023-01-29T09:16:43.852Z,3.37
2023-01-29T09:17:45.462Z,3.53
2023-01-29T09:18:47.012Z,3.47
2023-01-29T09:19:48.587Z,3.65
2023-01-29T09:20:50.140Z,3.83
2023-01-29T09:21:51.688Z,3.72
2023-01-29T09:22:53.205Z,3.78
2023-01-29T09:23:54.757Z,3.86
2023-01-29T09:24:56.343Z,3.75
2023-01-29T09:25:58.169Z,3.55
2023-01-29T09:26:59.755Z,3.56
2023-01-29T09:28:01.386Z,3.49
2023-01-29T09:29:02.913Z,3.57
2023-01-29T09:30:05.271Z,3.37
2023-01-29T09:31:06.959Z,3.30
2023-01-29T09:32:08.593Z,3.13
2023-01-29T09:33:10.323Z,3.31
2023-01-29T09:34:11.874Z,3.15
2023-01-29T09:35:13.437Z,2.80
2023-01-29T09:36:14.996Z,2.47
2023-01-29T09:37:16.620Z,2.30
2023-01-29T09:38:18.125Z,2.17
2023-01-29T09:39:19.655Z,1.98
2023-01-29T09:40:27.285Z,1.92
2023-01-29T09:41:56.395Z,1.90
2023-01-29T09:43:04.586Z,1.91
2023-01-29T09:44:19.219Z,1.75
2023-01-29T09:45:26.507Z,1.57
2023-01-29T09:46:40.447Z,1.26
2023-01-29T09:47:42.030Z,1.05
2023-01-29T09:48:45.258Z,0.96
2023-01-29T09:49:51.077Z,1.08
2023-01-29T09:50:55.752Z,1.08
2023-01-29T09:52:03.371Z,0.90
2023-01-29T09:53:19.933Z,0.83
2023-01-29T09:54:32.059Z,0.59
2023-01-29T09:55:37.200Z,0.47
2023-01-29T09:56:38.868Z,0.35
2023-01-29T09:57:58.387Z,0.31
2023-01-29T09:59:01.706Z,0.33
2023-01-29T10:00:03.950Z,0.32
2023-01-29T10:01:10.262Z,0.23
2023-01-29T10:02:17.716Z,0.25
2023-01-29T10:03:25.205Z,0.34
2023-01-29T10:04:45.104Z,0.41
2023-01-29T10:06:10.874Z,0.54
2023-01-29T10:07:56.797Z,0.62
2023-01-29T10:09:32.016Z,0.62
2023-01-29T10:10:51.555Z,0.43
2023-01-29T10:12:21.169Z,0.37
2023-01-29T10:13:44.720Z,0.54
2023-01-29T10:15:15.565Z,0.57
2023-01-29T10:16:26.055Z,0.65
2023-01-29T10:18:03.210Z,0.68
2023-01-29T10:19:31.988Z,0.77
2023-01-29T10:20:50.484Z,0.88
2023-01-29T10:22:00.752Z,1.07
2023-01-29T10:23:23.040Z,1.02
2023-01-29T10:24:44.765Z,0.89
2023-01-29T10:25:47.759Z,0.82
2023-01-29T10:26:51.710Z,0.91
2023-01-29T10:27:57.536Z,1.04
2023-01-29T10:29:01.291Z,1.17
2023-01-29T10:30:07.816Z,1.25
2023-01-29T10:31:15.245Z,1.34
2023-01-29T10:32:20.837Z,1.35
2023-01-29T10:33:49.408Z,1.19
2023-01-29T10:35:05.240Z,1.19
2023-01-29T10:36:18.651Z,1.36
2023-01-29T10:37:28.613Z,1.44
2023-01-29T10:38:50.241Z,1.49
2023-01-29T10:39:51.783Z,1.49
2023-01-29T10:41:04.815Z,1.46
2023-01-29T10:42:44.815Z,1.37
2023-01-29T10:43:49.141Z,1.40
2023-01-29T10:44:59.731Z,1.51
2023-01-29T10:46:19.191Z,1.26
2023-01-29T10:47:49.183Z,1.14
2023-01-29T10:49:06.137Z,1.10
2023-01-29T10:50:55.239Z,1.16
2023-01-29T10:51:56.728Z,1.16
2023-01-29T10:53:08.150Z,1.05
2023-01-29T10:54:34.932Z,0.98
2023-01-29T10:55:42.168Z,0.98
2023-01-29T10:56:51.141Z,0.94
2023-01-29T10:57:57.108Z,0.96
2023-01-29T10:59:03.980Z,0.96
2023-01-29T11:00:18.009Z,1.10
2023-01-29T11:01:19.641Z,1.16
2023-01-29T11:02:21.312Z,1.28
2023-01-29T11:03:31.475Z,1.43
2023-01-29T11:04:35.033Z,1.54
2023-01-29T11:05:44.299Z,1.39
2023-01-29T11:06:46.377Z,1.22
2023-01-29T11:07:49.363Z,1.16
2023-01-29T11:09:02.653Z,1.20
2023-01-29T11:10:11.722Z,1.31
2023-01-29T11:11:16.025Z,1.34
2023-01-29T11:12:24.036Z,1.43
2023-01-29T11:13:32.345Z,1.47
2023-01-29T11:14:48.759Z,1.47
2023-01-29T11:15:52.967Z,1.49
2023-01-29T11:16:55.447Z,1.54
2023-01-29T11:18:09.334Z,1.59
2023-01-29T11:19:11.383Z,1.55
2023-01-29T11:20:29.289Z,1.39
2023-01-29T11:21:30.842Z,1.31
2023-01-29T11:22:32.477Z,1.26
2023-01-29T11:23:34.145Z,1.29
2023-01-29T11:24:35.666Z,1.39
2023-01-29T11:25:37.245Z,1.42
2023-01-29T11:26:42.123Z,1.49
2023-01-29T11:27:46.601Z,1.47
2023-01-29T11:28:50.478Z,1.52
2023-01-29T11:29:55.683Z,1.53
2023-01-29T11:30:57.488Z,1.62
2023-01-29T11:32:00.715Z,1.71
2023-01-29T11:33:05.025Z,1.70
2023-01-29T11:34:18.315Z,1.68
2023-01-29T11:35:22.982Z,1.51
2023-01-29T11:36:32.547Z,1.43
2023-01-29T11:37:38.806Z,1.26
2023-01-29T11:38:40.341Z,1.13
2023-01-29T11:39:45.693Z,1.14
2023-01-29T11:40:47.331Z,1.30
2023-01-29T11:42:03.038Z,1.34
2023-01-29T11:43:43.207Z,1.34
2023-01-29T11:44:44.787Z,1.32
2023-01-29T11:45:48.119Z,1.26
2023-01-29T11:46:50.103Z,1.26
2023-01-29T11:47:56.658Z,1.25
2023-01-29T11:48:59.241Z,1.23
2023-01-29T11:50:20.294Z,1.17
2023-01-29T11:51:29.417Z,1.16
2023-01-29T11:52:40.915Z,1.10
2023-01-29T11:53:45.804Z,1.03
2023-01-29T11:54:52.735Z,1.06
2023-01-29T11:55:54.651Z,1.00
2023-01-29T11:56:56.931Z,0.99
2023-01-29T11:58:06.417Z,1.00
2023-01-29T11:59:36.175Z,0.95
2023-01-29T12:00:41.172Z,1.08
2023-01-29T12:01:42.752Z,1.14
2023-01-29T12:02:47.938Z,1.11
2023-01-29T12:03:52.815Z,1.06
2023-01-29T12:04:56.627Z,1.02
2023-01-29T12:06:03.254Z,1.03
2023-01-29T12:07:13.661Z,1.04
2023-01-29T12:08:18.673Z,1.04
2023-01-29T12:09:24.232Z,0.97
2023-01-29T12:10:34.356Z,0.96
2023-01-29T12:11:36.094Z,1.01
2023-01-29T12:12:41.430Z,1.06
2023-01-29T12:13:42.987Z,1.11
2023-01-29T12:14:44.553Z,1.06
2023-01-29T12:15:47.738Z,1.00
2023-01-29T12:16:58.532Z,0.83
2023-01-29T12:18:16.503Z,0.83
2023-01-29T12:19:45.396Z,0.94
2023-01-29T12:20:53.489Z,1.02
2023-01-29T12:22:03.030Z,1.08
2023-01-29T12:23:05.362Z,1.14
2023-01-29T12:24:41.598Z,1.20
2023-01-29T12:26:02.560Z,1.16
2023-01-29T12:27:12.026Z,1.16
2023-01-29T12:28:31.641Z,1.06
2023-01-29T12:29:55.041Z,1.07
2023-01-29T12:31:15.681Z,0.98
2023-01-29T12:32:35.186Z,0.84
2023-01-29T12:34:13.489Z,0.80
2023-01-29T12:35:27.021Z,0.87
2023-01-29T12:36:55.265Z,0.89
2023-01-29T12:38:02.740Z,0.80
2023-01-29T12:39:04.581Z,0.73
2023-01-29T12:40:19.301Z,0.54
2023-01-29T12:41:23.975Z,0.48
2023-01-29T12:42:25.918Z,0.35
2023-01-29T12:43:33.480Z,0.33
2023-01-29T12:44:45.624Z,0.34
2023-01-29T12:45:52.773Z,0.48
2023-01-29T12:46:58.053Z,0.54
2023-01-29T12:48:04.789Z,0.55
2023-01-29T12:49:15.468Z,0.66
2023-01-29T12:50:28.952Z,0.75
2023-01-29T12:51:39.741Z,0.78
2023-01-29T12:52:51.468Z,0.75
2023-01-29T12:53:57.997Z,0.70
2023-01-29T12:55:19.376Z,0.64
2023-01-29T12:56:32.759Z,0.66
2023-01-29T12:57:44.597Z,0.61
2023-01-29T12:58:50.591Z,0.69
2023-01-29T13:00:01.172Z,0.66
2023-01-29T13:01:23.163Z,0.63
2023-01-29T13:02:49.849Z,0.69
2023-01-29T13:04:36.361Z,0.62
2023-01-29T13:05:46.086Z,0.51
2023-01-29T13:07:00.429Z,0.57
2023-01-29T13:08:08.335Z,0.64
2023-01-29T13:09:16.992Z,0.70
2023-01-29T13:10:24.424Z,0.73
2023-01-29T13:11:37.934Z,0.70
2023-01-29T13:12:47.050Z,0.67
2023-01-29T13:14:00.554Z,0.55
2023-01-29T13:15:20.884Z,0.50
2023-01-29T13:16:27.218Z,0.60
2023-01-29T13:17:47.412Z,0.51
2023-01-29T13:18:59.420Z,0.50
2023-01-29T13:20:11.014Z,0.49
2023-01-29T13:21:19.127Z,0.55
2023-01-29T13:22:25.318Z,0.61
2023-01-29T13:24:04.919Z,0.62
2023-01-29T13:25:06.899Z,0.65
2023-01-29T13:26:08.682Z,0.61
2023-01-29T13:27:22.039Z,0.59
2023-01-29T13:28:26.679Z,0.64
2023-01-29T13:29:30.139Z,0.67
2023-01-29T13:30:35.690Z,0.64
2023-01-29T13:31:39.053Z,0.64
2023-01-29T13:32:41.530Z,0.75
2023-01-29T13:33:44.300Z,0.78
2023-01-29T13:34:48.161Z,0.77
2023-01-29T13:35:59.412Z,0.79
2023-01-29T13:37:09.517Z,0.80
2023-01-29T13:38:25.287Z,0.79
2023-01-29T13:39:29.679Z,0.77
2023-01-29T13:40:32.701Z,0.58
2023-01-29T13:41:39.816Z,0.51
2023-01-29T13:42:47.885Z,0.52
2023-01-29T13:43:50.223Z,0.51
2023-01-29T13:44:57.426Z,0.49
2023-01-29T13:46:08.448Z,0.55
2023-01-29T13:47:20.565Z,0.53
2023-01-29T13:48:26.988Z,0.50
2023-01-29T13:49:39.200Z,0.40
2023-01-29T13:50:42.897Z,0.30
2023-01-29T13:51:44.558Z,0.20
2023-01-29T13:52:54.407Z,0.17
2023-01-29T13:54:01.369Z,0.09
2023-01-29T13:55:43.360Z,0.13
2023-01-29T13:56:56.347Z,0.08
2023-01-29T13:57:59.882Z,0.15
2023-01-29T13:59:04.411Z,0.12
2023-01-29T14:00:06.875Z,0.05
2023-01-29T14:01:08.480Z,-0.01
2023-01-29T14:02:29.630Z,0.04
2023-01-29T14:03:45.119Z,0.06
2023-01-29T14:05:12.422Z,0.09
2023-01-29T14:06:38.880Z,0.03
2023-01-29T14:07:43.391Z,-0.03
2023-01-29T14:08:45.555Z,-0.09
2023-01-29T14:09:47.030Z,-0.13
2023-01-29T14:11:17.541Z,-0.11
2023-01-29T14:12:22.027Z,-0.10
2023-01-29T14:13:28.043Z,-0.09
2023-01-29T14:14:48.099Z,-0.06
2023-01-29T14:15:58.788Z,-0.10
2023-01-29T14:17:03.416Z,-0.18
2023-01-29T14:18:23.918Z,-0.09
2023-01-29T14:19:25.779Z,-0.17
2023-01-29T14:20:45.449Z,-0.17
2023-01-29T14:21:50.375Z,-0.09
2023-01-29T14:22:59.348Z,-0.17
2023-01-29T14:24:18.685Z,-0.13
2023-01-29T14:25:28.589Z,-0.08
2023-01-29T14:26:34.681Z,-0.05
2023-01-29T14:27:37.270Z,-0.02
2023-01-29T14:28:40.173Z,-0.02
2023-01-29T14:29:41.877Z,0.04
2023-01-29T14:30:48.140Z,0.03
2023-01-29T14:32:08.317Z,-0.02
2023-01-29T14:33:22.974Z,-0.15
2023-01-29T14:34:34.857Z,-0.13
2023-01-29T14:35:36.866Z,-0.18
2023-01-29T14:36:41.241Z,-0.27
2023-01-29T14:37:47.914Z,-0.31